sensor_id;sensor_type;location;lat;lon;timestamp;temperature;humidity
13892;DHT22;7016;48.172;8.058;2023-03-12T00:00:19;3.00;99.90
13892;DHT22;7016;48.172;8.058;2023-03-12T00:02:45;3.00;99.90
13892;DHT22;7016;48.172;8.058;2023-03-12T00:05:10;3.00;99.90
13892;DHT22;7016;48.172;8.058;2023-03-12T00:07:36;3.00;99.90
13892;DHT22;7016;48.172;8.058;2023-03-12T00:10:04;2.90;99.90
13892;DHT22;7016;48.172;8.058;2023-03-12T00:12:30;2.90;99.90
13892;DHT22;7016;48.172;8.058;2023-03-12T00:14:56;2.90;99.90
13892;DHT22;7016;48.172;8.058;2023-03-12T00:17:21;3.00;99.90
13892;DHT22;7016;48.172;8.058;2023-03-12T00:19:53;3.00;99.90
13892;DHT22;7016;48.172;8.058;2023-03-12T00:22:19;3.10;99.90
13892;DHT22;7016;48.172;8.058;2023-03-12T00:24:51;3.10;99.90
13892;DHT22;7016;48.172;8.058;2023-03-12T00:27:18;3.00;99.90
13892;DHT22;7016;48.172;8.058;2023-03-12T00:29:44;3.10;99.90
13892;DHT22;7016;48.172;8.058;2023-03-12T00:32:09;3.20;99.90
13892;DHT22;7016;48.172;8.058;2023-03-12T00:34:35;3.20;99.90
13892;DHT22;7016;48.172;8.058;2023-03-12T00:37:01;3.10;99.90
13892;DHT22;7016;48.172;8.058;2023-03-12T00:39:27;3.20;99.90
13892;DHT22;7016;48.172;8.058;2023-03-12T00:41:52;3.00;99.90
13892;DHT22;7016;48.172;8.058;2023-03-12T00:44:18;2.80;99.90
13892;DHT22;7016;48.172;8.058;2023-03-12T00:46:44;2.50;99.90
13892;DHT22;7016;48.172;8.058;2023-03-12T00:49:10;2.40;99.90
13892;DHT22;7016;48.172;8.058;2023-03-12T00:51:36;2.40;99.90
13892;DHT22;7016;48.172;8.058;2023-03-12T00:54:03;2.60;99.90
13892;DHT22;7016;48.172;8.058;2023-03-12T00:56:29;2.60;99.90
13892;DHT22;7016;48.172;8.058;2023-03-12T00:58:54;2.50;99.90
13892;DHT22;7016;48.172;8.058;2023-03-12T01:01:20;2.40;99.90
13892;DHT22;7016;48.172;8.058;2023-03-12T01:03:46;2.40;99.90
13892;DHT22;7016;48.172;8.058;2023-03-12T01:06:13;2.50;99.90
13892;DHT22;7016;48.172;8.058;2023-03-12T01:08:38;2.50;99.90
13892;DHT22;7016;48.172;8.058;2023-03-12T01:11:04;2.60;99.90
13892;DHT22;7016;48.172;8.058;2023-03-12T01:13:30;2.70;99.90
13892;DHT22;7016;48.172;8.058;2023-03-12T01:15:56;2.80;99.90
13892;DHT22;7016;48.172;8.058;2023-03-12T01:18:22;2.60;99.90
13892;DHT22;7016;48.172;8.058;2023-03-12T01:20:48;2.60;99.90
13892;DHT22;7016;48.172;8.058;2023-03-12T01:23:13;2.70;99.90
13892;DHT22;7016;48.172;8.058;2023-03-12T01:25:40;2.70;99.90
13892;DHT22;7016;48.172;8.058;2023-03-12T01:28:05;2.70;99.90
13892;DHT22;7016;48.172;8.058;2023-03-12T01:30:38;2.70;99.90
13892;DHT22;7016;48.172;8.058;2023-03-12T01:33:25;2.70;99.90
13892;DHT22;7016;48.172;8.058;2023-03-12T01:35:51;2.80;99.90
13892;DHT22;7016;48.172;8.058;2023-03-12T01:38:17;2.90;99.90
13892;DHT22;7016;48.172;8.058;2023-03-12T01:40:45;2.80;99.90
13892;DHT22;7016;48.172;8.058;2023-03-12T01:43:29;2.80;99.90
13892;DHT22;7016;48.172;8.058;2023-03-12T01:46:06;2.90;99.90
13892;DHT22;7016;48.172;8.058;2023-03-12T01:52:05;2.90;99.90
13892;DHT22;7016;48.172;8.058;2023-03-12T01:57:19;2.90;99.90
13892;DHT22;7016;48.172;8.058;2023-03-12T01:59:49;3.00;99.90
13892;DHT22;7016;48.172;8.058;2023-03-12T02:02:16;2.90;99.90
13892;DHT22;7016;48.172;8.058;2023-03-12T02:04:45;3.00;99.90
13892;DHT22;7016;48.172;8.058;2023-03-12T02:07:16;2.90;99.90
13892;DHT22;7016;48.172;8.058;2023-03-12T02:09:45;2.80;99.90
13892;DHT22;7016;48.172;8.058;2023-03-12T02:12:12;2.90;99.90
13892;DHT22;7016;48.172;8.058;2023-03-12T02:14:40;3.00;99.90
13892;DHT22;7016;48.172;8.058;2023-03-12T02:17:18;3.00;99.90
13892;DHT22;7016;48.172;8.058;2023-03-12T02:19:56;3.00;99.90
13892;DHT22;7016;48.172;8.058;2023-03-12T02:22:24;3.00;99.90
13892;DHT22;7016;48.172;8.058;2023-03-12T02:24:52;2.90;99.90
13892;DHT22;7016;48.172;8.058;2023-03-12T02:27:20;2.90;99.90
13892;DHT22;7016;48.172;8.058;2023-03-12T02:29:46;3.00;99.90
13892;DHT22;7016;48.172;8.058;2023-03-12T02:32:32;3.10;99.90
13892;DHT22;7016;48.172;8.058;2023-03-12T02:35:14;3.10;99.90
13892;DHT22;7016;48.172;8.058;2023-03-12T02:37:50;3.10;99.90
13892;DHT22;7016;48.172;8.058;2023-03-12T02:40:38;3.10;99.90
13892;DHT22;7016;48.172;8.058;2023-03-12T02:43:09;3.10;99.90
13892;DHT22;7016;48.172;8.058;2023-03-12T02:45:36;3.10;99.90
13892;DHT22;7016;48.172;8.058;2023-03-12T02:48:04;3.10;99.90
13892;DHT22;7016;48.172;8.058;2023-03-12T02:50:32;3.20;99.90
13892;DHT22;7016;48.172;8.058;2023-03-12T02:52:58;3.10;99.90
13892;DHT22;7016;48.172;8.058;2023-03-12T02:55:23;3.10;99.90
13892;DHT22;7016;48.172;8.058;2023-03-12T02:57:49;3.10;99.90
13892;DHT22;7016;48.172;8.058;2023-03-12T03:00:28;3.20;99.90
13892;DHT22;7016;48.172;8.058;2023-03-12T03:02:58;3.10;99.90
13892;DHT22;7016;48.172;8.058;2023-03-12T03:05:24;3.20;99.90
13892;DHT22;7016;48.172;8.058;2023-03-12T03:07:49;3.00;99.90
13892;DHT22;7016;48.172;8.058;2023-03-12T03:10:34;3.00;99.90
13892;DHT22;7016;48.172;8.058;2023-03-12T03:15:25;3.20;99.90
13892;DHT22;7016;48.172;8.058;2023-03-12T03:17:51;3.20;99.90
13892;DHT22;7016;48.172;8.058;2023-03-12T03:20:17;3.20;99.90
13892;DHT22;7016;48.172;8.058;2023-03-12T03:22:43;3.10;99.90
13892;DHT22;7016;48.172;8.058;2023-03-12T03:25:09;3.00;99.90
13892;DHT22;7016;48.172;8.058;2023-03-12T03:27:35;3.00;99.90
13892;DHT22;7016;48.172;8.058;2023-03-12T03:30:01;3.10;99.90
13892;DHT22;7016;48.172;8.058;2023-03-12T03:32:27;3.10;99.90
13892;DHT22;7016;48.172;8.058;2023-03-12T03:34:52;3.20;99.90
13892;DHT22;7016;48.172;8.058;2023-03-12T03:37:18;3.10;99.90
13892;DHT22;7016;48.172;8.058;2023-03-12T03:39:44;3.10;99.90
13892;DHT22;7016;48.172;8.058;2023-03-12T03:42:10;3.20;99.90
13892;DHT22;7016;48.172;8.058;2023-03-12T03:44:35;3.10;99.90
13892;DHT22;7016;48.172;8.058;2023-03-12T03:47:01;3.10;99.90
13892;DHT22;7016;48.172;8.058;2023-03-12T03:49:27;3.10;99.90
13892;DHT22;7016;48.172;8.058;2023-03-12T03:51:52;3.10;99.90
13892;DHT22;7016;48.172;8.058;2023-03-12T03:54:19;3.10;99.90
13892;DHT22;7016;48.172;8.058;2023-03-12T03:56:45;3.20;99.90
13892;DHT22;7016;48.172;8.058;2023-03-12T03:59:12;3.20;99.90
13892;DHT22;7016;48.172;8.058;2023-03-12T04:01:37;3.20;99.90
13892;DHT22;7016;48.172;8.058;2023-03-12T04:04:03;3.30;99.90
13892;DHT22;7016;48.172;8.058;2023-03-12T04:06:30;3.40;99.90
13892;DHT22;7016;48.172;8.058;2023-03-12T04:08:57;3.40;99.90
13892;DHT22;7016;48.172;8.058;2023-03-12T04:11:22;3.40;99.90
13892;DHT22;7016;48.172;8.058;2023-03-12T04:13:49;3.40;99.90
13892;DHT22;7016;48.172;8.058;2023-03-12T04:16:16;3.40;99.90
13892;DHT22;7016;48.172;8.058;2023-03-12T04:18:42;3.40;99.90
13892;DHT22;7016;48.172;8.058;2023-03-12T04:21:09;3.40;99.90
13892;DHT22;7016;48.172;8.058;2023-03-12T04:23:36;3.50;99.90
13892;DHT22;7016;48.172;8.058;2023-03-12T04:26:03;3.50;99.90
13892;DHT22;7016;48.172;8.058;2023-03-12T04:28:29;3.40;99.90
13892;DHT22;7016;48.172;8.058;2023-03-12T04:30:59;3.50;99.90
13892;DHT22;7016;48.172;8.058;2023-03-12T04:33:31;3.60;99.90
13892;DHT22;7016;48.172;8.058;2023-03-12T04:35:58;3.60;99.90
13892;DHT22;7016;48.172;8.058;2023-03-12T04:38:24;3.50;99.90
13892;DHT22;7016;48.172;8.058;2023-03-12T04:41:04;3.40;99.90
13892;DHT22;7016;48.172;8.058;2023-03-12T04:43:31;3.40;99.90
13892;DHT22;7016;48.172;8.058;2023-03-12T04:45:57;3.50;99.90
13892;DHT22;7016;48.172;8.058;2023-03-12T04:48:24;3.40;99.90
13892;DHT22;7016;48.172;8.058;2023-03-12T04:50:49;3.50;99.90
13892;DHT22;7016;48.172;8.058;2023-03-12T04:53:15;3.50;99.90
13892;DHT22;7016;48.172;8.058;2023-03-12T04:55:41;3.70;99.90
13892;DHT22;7016;48.172;8.058;2023-03-12T04:58:07;3.80;99.90
13892;DHT22;7016;48.172;8.058;2023-03-12T05:00:33;3.80;99.90
13892;DHT22;7016;48.172;8.058;2023-03-12T05:02:59;3.90;99.90
13892;DHT22;7016;48.172;8.058;2023-03-12T05:05:24;3.90;99.90
13892;DHT22;7016;48.172;8.058;2023-03-12T05:07:50;3.90;99.90
13892;DHT22;7016;48.172;8.058;2023-03-12T05:10:16;3.90;99.90
13892;DHT22;7016;48.172;8.058;2023-03-12T05:12:42;3.90;99.90
13892;DHT22;7016;48.172;8.058;2023-03-12T05:15:08;4.00;99.90
13892;DHT22;7016;48.172;8.058;2023-03-12T05:17:33;4.10;99.90
13892;DHT22;7016;48.172;8.058;2023-03-12T05:19:59;4.10;99.90
13892;DHT22;7016;48.172;8.058;2023-03-12T05:22:25;4.30;99.90
13892;DHT22;7016;48.172;8.058;2023-03-12T05:24:50;4.40;99.90
13892;DHT22;7016;48.172;8.058;2023-03-12T05:27:16;4.30;99.90
13892;DHT22;7016;48.172;8.058;2023-03-12T05:29:42;4.40;99.90
13892;DHT22;7016;48.172;8.058;2023-03-12T05:32:08;4.60;99.90
13892;DHT22;7016;48.172;8.058;2023-03-12T05:34:34;4.70;99.90
13892;DHT22;7016;48.172;8.058;2023-03-12T05:37:00;4.80;99.90
13892;DHT22;7016;48.172;8.058;2023-03-12T05:39:26;4.80;99.90
13892;DHT22;7016;48.172;8.058;2023-03-12T05:41:52;4.90;99.90
13892;DHT22;7016;48.172;8.058;2023-03-12T05:44:22;4.80;99.90
13892;DHT22;7016;48.172;8.058;2023-03-12T05:46:48;5.00;99.90
13892;DHT22;7016;48.172;8.058;2023-03-12T05:49:14;5.00;99.90
13892;DHT22;7016;48.172;8.058;2023-03-12T05:51:39;5.20;99.90
13892;DHT22;7016;48.172;8.058;2023-03-12T05:54:06;5.30;99.90
13892;DHT22;7016;48.172;8.058;2023-03-12T05:56:31;5.30;99.90
13892;DHT22;7016;48.172;8.058;2023-03-12T05:59:00;5.40;99.90
13892;DHT22;7016;48.172;8.058;2023-03-12T06:01:27;5.50;99.90
13892;DHT22;7016;48.172;8.058;2023-03-12T06:03:54;5.60;99.90
13892;DHT22;7016;48.172;8.058;2023-03-12T06:06:19;5.60;99.90
13892;DHT22;7016;48.172;8.058;2023-03-12T06:08:45;5.90;99.90
13892;DHT22;7016;48.172;8.058;2023-03-12T06:11:11;6.00;99.90
13892;DHT22;7016;48.172;8.058;2023-03-12T06:13:37;6.10;99.90
13892;DHT22;7016;48.172;8.058;2023-03-12T06:16:10;6.10;99.90
13892;DHT22;7016;48.172;8.058;2023-03-12T06:18:36;6.10;99.90
13892;DHT22;7016;48.172;8.058;2023-03-12T06:21:20;6.10;99.90
13892;DHT22;7016;48.172;8.058;2023-03-12T06:23:46;6.20;99.90
13892;DHT22;7016;48.172;8.058;2023-03-12T06:26:12;6.30;99.90
13892;DHT22;7016;48.172;8.058;2023-03-12T06:28:39;6.30;99.90
13892;DHT22;7016;48.172;8.058;2023-03-12T06:31:05;6.30;99.90
13892;DHT22;7016;48.172;8.058;2023-03-12T06:33:31;6.50;99.90
13892;DHT22;7016;48.172;8.058;2023-03-12T06:35:59;6.50;99.90
13892;DHT22;7016;48.172;8.058;2023-03-12T06:38:25;6.60;99.90
13892;DHT22;7016;48.172;8.058;2023-03-12T06:40:55;6.60;99.90
13892;DHT22;7016;48.172;8.058;2023-03-12T06:43:22;6.50;99.90
13892;DHT22;7016;48.172;8.058;2023-03-12T06:45:48;6.60;99.90
13892;DHT22;7016;48.172;8.058;2023-03-12T06:48:14;6.60;99.90
13892;DHT22;7016;48.172;8.058;2023-03-12T06:50:39;6.60;99.90
13892;DHT22;7016;48.172;8.058;2023-03-12T06:53:05;6.70;99.90
13892;DHT22;7016;48.172;8.058;2023-03-12T06:55:31;6.70;99.90
13892;DHT22;7016;48.172;8.058;2023-03-12T06:57:56;6.70;99.90
13892;DHT22;7016;48.172;8.058;2023-03-12T07:00:22;6.80;99.90
13892;DHT22;7016;48.172;8.058;2023-03-12T07:02:48;6.80;99.90
13892;DHT22;7016;48.172;8.058;2023-03-12T07:05:13;6.80;99.90
13892;DHT22;7016;48.172;8.058;2023-03-12T07:07:39;6.80;99.90
13892;DHT22;7016;48.172;8.058;2023-03-12T07:10:05;6.90;99.90
13892;DHT22;7016;48.172;8.058;2023-03-12T07:12:32;6.80;99.90
13892;DHT22;7016;48.172;8.058;2023-03-12T07:14:58;6.90;99.90
13892;DHT22;7016;48.172;8.058;2023-03-12T07:17:24;6.90;99.90
13892;DHT22;7016;48.172;8.058;2023-03-12T07:19:50;7.00;99.90
13892;DHT22;7016;48.172;8.058;2023-03-12T07:22:16;6.90;99.90
13892;DHT22;7016;48.172;8.058;2023-03-12T07:24:42;7.00;99.90
13892;DHT22;7016;48.172;8.058;2023-03-12T07:27:08;7.00;99.90
13892;DHT22;7016;48.172;8.058;2023-03-12T07:29:34;7.00;99.90
13892;DHT22;7016;48.172;8.058;2023-03-12T07:31:59;7.10;99.90
13892;DHT22;7016;48.172;8.058;2023-03-12T07:34:25;7.00;99.90
13892;DHT22;7016;48.172;8.058;2023-03-12T07:36:51;7.10;99.90
13892;DHT22;7016;48.172;8.058;2023-03-12T07:39:17;7.10;99.90
13892;DHT22;7016;48.172;8.058;2023-03-12T07:41:43;7.10;99.90
13892;DHT22;7016;48.172;8.058;2023-03-12T07:44:09;5.60;99.90
13892;DHT22;7016;48.172;8.058;2023-03-12T07:46:35;7.20;99.90
13892;DHT22;7016;48.172;8.058;2023-03-12T07:49:00;7.20;99.90
13892;DHT22;7016;48.172;8.058;2023-03-12T07:51:26;7.20;99.90
13892;DHT22;7016;48.172;8.058;2023-03-12T07:53:52;7.20;99.90
13892;DHT22;7016;48.172;8.058;2023-03-12T07:56:18;7.20;99.90
13892;DHT22;7016;48.172;8.058;2023-03-12T07:58:44;7.30;99.90
13892;DHT22;7016;48.172;8.058;2023-03-12T08:01:09;7.40;99.90
13892;DHT22;7016;48.172;8.058;2023-03-12T08:03:35;7.40;99.90
13892;DHT22;7016;48.172;8.058;2023-03-12T08:06:03;7.40;99.90
13892;DHT22;7016;48.172;8.058;2023-03-12T08:08:29;7.50;99.90
13892;DHT22;7016;48.172;8.058;2023-03-12T08:10:56;7.50;99.90
13892;DHT22;7016;48.172;8.058;2023-03-12T08:13:22;7.50;99.90
13892;DHT22;7016;48.172;8.058;2023-03-12T08:15:50;7.50;99.90
13892;DHT22;7016;48.172;8.058;2023-03-12T08:18:16;7.60;99.90
13892;DHT22;7016;48.172;8.058;2023-03-12T08:20:42;7.60;99.90
13892;DHT22;7016;48.172;8.058;2023-03-12T08:23:08;7.60;99.90
13892;DHT22;7016;48.172;8.058;2023-03-12T08:25:34;7.60;99.90
13892;DHT22;7016;48.172;8.058;2023-03-12T08:28:04;7.70;99.90
13892;DHT22;7016;48.172;8.058;2023-03-12T08:30:30;7.70;99.90
13892;DHT22;7016;48.172;8.058;2023-03-12T08:32:57;7.80;99.90
13892;DHT22;7016;48.172;8.058;2023-03-12T08:35:23;7.80;99.90
13892;DHT22;7016;48.172;8.058;2023-03-12T08:37:49;7.80;99.90
13892;DHT22;7016;48.172;8.058;2023-03-12T08:40:15;7.90;99.90
13892;DHT22;7016;48.172;8.058;2023-03-12T08:42:42;7.90;99.90
13892;DHT22;7016;48.172;8.058;2023-03-12T08:45:09;8.00;99.90
13892;DHT22;7016;48.172;8.058;2023-03-12T08:50:04;8.00;99.90
13892;DHT22;7016;48.172;8.058;2023-03-12T08:52:30;8.00;99.90
13892;DHT22;7016;48.172;8.058;2023-03-12T08:54:56;8.10;99.90
13892;DHT22;7016;48.172;8.058;2023-03-12T08:57:22;8.20;99.90
13892;DHT22;7016;48.172;8.058;2023-03-12T08:59:47;8.20;99.90
13892;DHT22;7016;48.172;8.058;2023-03-12T09:02:13;8.30;99.90
13892;DHT22;7016;48.172;8.058;2023-03-12T09:04:39;8.30;99.90
13892;DHT22;7016;48.172;8.058;2023-03-12T09:07:05;8.40;99.90
13892;DHT22;7016;48.172;8.058;2023-03-12T09:09:30;8.40;99.90
13892;DHT22;7016;48.172;8.058;2023-03-12T09:11:56;8.50;99.90
13892;DHT22;7016;48.172;8.058;2023-03-12T09:14:22;8.50;99.90
13892;DHT22;7016;48.172;8.058;2023-03-12T09:16:48;8.50;99.90
13892;DHT22;7016;48.172;8.058;2023-03-12T09:19:14;8.60;99.90
13892;DHT22;7016;48.172;8.058;2023-03-12T09:21:40;8.50;99.90
13892;DHT22;7016;48.172;8.058;2023-03-12T09:24:06;8.60;99.90
13892;DHT22;7016;48.172;8.058;2023-03-12T09:26:32;8.60;99.90
13892;DHT22;7016;48.172;8.058;2023-03-12T09:28:57;8.60;99.90
13892;DHT22;7016;48.172;8.058;2023-03-12T09:31:24;8.60;99.90
13892;DHT22;7016;48.172;8.058;2023-03-12T09:33:50;8.70;99.90
13892;DHT22;7016;48.172;8.058;2023-03-12T09:36:16;8.70;99.90
13892;DHT22;7016;48.172;8.058;2023-03-12T09:38:42;8.70;99.90
13892;DHT22;7016;48.172;8.058;2023-03-12T09:41:23;8.70;99.90
13892;DHT22;7016;48.172;8.058;2023-03-12T09:43:56;8.70;99.90
13892;DHT22;7016;48.172;8.058;2023-03-12T09:46:33;8.80;99.90
13892;DHT22;7016;48.172;8.058;2023-03-12T09:49:10;8.80;99.90
13892;DHT22;7016;48.172;8.058;2023-03-12T09:51:44;8.80;99.90
13892;DHT22;7016;48.172;8.058;2023-03-12T09:54:40;8.90;99.90
13892;DHT22;7016;48.172;8.058;2023-03-12T09:57:12;9.00;99.90
13892;DHT22;7016;48.172;8.058;2023-03-12T09:59:39;9.00;99.90
13892;DHT22;7016;48.172;8.058;2023-03-12T10:05:08;9.00;99.90
13892;DHT22;7016;48.172;8.058;2023-03-12T10:08:01;9.10;99.90
13892;DHT22;7016;48.172;8.058;2023-03-12T10:10:54;9.00;99.90
13892;DHT22;7016;48.172;8.058;2023-03-12T10:24:35;9.30;99.90
13892;DHT22;7016;48.172;8.058;2023-03-12T10:27:11;9.40;99.90
13892;DHT22;7016;48.172;8.058;2023-03-12T10:29:40;9.40;99.90
13892;DHT22;7016;48.172;8.058;2023-03-12T10:32:15;9.40;99.90
13892;DHT22;7016;48.172;8.058;2023-03-12T10:35:12;9.60;99.90
13892;DHT22;7016;48.172;8.058;2023-03-12T10:40:15;9.60;99.90
13892;DHT22;7016;48.172;8.058;2023-03-12T10:42:41;9.60;99.90
13892;DHT22;7016;48.172;8.058;2023-03-12T10:48:03;9.60;99.90
13892;DHT22;7016;48.172;8.058;2023-03-12T10:50:37;9.60;99.90
13892;DHT22;7016;48.172;8.058;2023-03-12T10:56:06;9.60;99.90
13892;DHT22;7016;48.172;8.058;2023-03-12T11:01:04;9.70;99.90
13892;DHT22;7016;48.172;8.058;2023-03-12T11:03:31;9.70;99.90
13892;DHT22;7016;48.172;8.058;2023-03-12T11:06:00;9.70;99.90
13892;DHT22;7016;48.172;8.058;2023-03-12T11:08:32;9.70;99.90
13892;DHT22;7016;48.172;8.058;2023-03-12T11:11:00;9.90;99.90
13892;DHT22;7016;48.172;8.058;2023-03-12T11:16:25;10.00;99.90
13892;DHT22;7016;48.172;8.058;2023-03-12T11:18:59;10.00;99.90
13892;DHT22;7016;48.172;8.058;2023-03-12T11:21:31;10.00;99.90
13892;DHT22;7016;48.172;8.058;2023-03-12T11:29:16;10.20;99.90
13892;DHT22;7016;48.172;8.058;2023-03-12T11:32:49;10.20;99.90
13892;DHT22;7016;48.172;8.058;2023-03-12T11:34:50;10.10;99.90
13892;DHT22;7016;48.172;8.058;2023-03-12T11:37:40;10.20;99.90
13892;DHT22;7016;48.172;8.058;2023-03-12T11:51:17;10.20;99.90
13892;DHT22;7016;48.172;8.058;2023-03-12T11:56:26;10.30;99.90
13892;DHT22;7016;48.172;8.058;2023-03-12T11:59:09;10.20;99.90
13892;DHT22;7016;48.172;8.058;2023-03-12T12:10:38;10.40;99.90
13892;DHT22;7016;48.172;8.058;2023-03-12T12:24:04;10.70;99.90
13892;DHT22;7016;48.172;8.058;2023-03-12T12:32:47;10.40;99.90
13892;DHT22;7016;48.172;8.058;2023-03-12T12:35:43;11.10;99.90
13892;DHT22;7016;48.172;8.058;2023-03-12T12:38:21;11.00;99.90
13892;DHT22;7016;48.172;8.058;2023-03-12T12:41:00;11.00;99.90
13892;DHT22;7016;48.172;8.058;2023-03-12T12:46:13;10.90;99.90
13892;DHT22;7016;48.172;8.058;2023-03-12T12:51:19;11.00;99.90
13892;DHT22;7016;48.172;8.058;2023-03-12T12:53:55;11.00;99.90
13892;DHT22;7016;48.172;8.058;2023-03-12T12:56:32;11.00;99.90
13892;DHT22;7016;48.172;8.058;2023-03-12T13:01:51;11.10;99.90
13892;DHT22;7016;48.172;8.058;2023-03-12T13:04:34;11.10;99.90
13892;DHT22;7016;48.172;8.058;2023-03-12T13:07:47;11.10;99.90
13892;DHT22;7016;48.172;8.058;2023-03-12T13:09:50;11.10;99.90
13892;DHT22;7016;48.172;8.058;2023-03-12T13:12:41;11.10;99.90
13892;DHT22;7016;48.172;8.058;2023-03-12T13:15:34;11.10;99.90
13892;DHT22;7016;48.172;8.058;2023-03-12T13:20:59;11.00;99.90
13892;DHT22;7016;48.172;8.058;2023-03-12T13:26:06;11.00;99.90
13892;DHT22;7016;48.172;8.058;2023-03-12T13:33:57;11.10;99.90
13892;DHT22;7016;48.172;8.058;2023-03-12T13:36:26;11.10;99.90
13892;DHT22;7016;48.172;8.058;2023-03-12T13:44:27;11.10;99.90
13892;DHT22;7016;48.172;8.058;2023-03-12T13:46:58;11.10;99.90
13892;DHT22;7016;48.172;8.058;2023-03-12T13:49:24;11.20;99.90
13892;DHT22;7016;48.172;8.058;2023-03-12T13:54:32;11.50;99.90
13892;DHT22;7016;48.172;8.058;2023-03-12T13:57:02;11.60;99.90
13892;DHT22;7016;48.172;8.058;2023-03-12T13:59:30;11.60;99.90
13892;DHT22;7016;48.172;8.058;2023-03-12T14:02:01;11.70;99.90
13892;DHT22;7016;48.172;8.058;2023-03-12T14:04:35;11.70;99.90
13892;DHT22;7016;48.172;8.058;2023-03-12T14:09:57;11.80;99.90
13892;DHT22;7016;48.172;8.058;2023-03-12T14:15:17;11.90;99.90
13892;DHT22;7016;48.172;8.058;2023-03-12T14:17:55;11.90;99.90
13892;DHT22;7016;48.172;8.058;2023-03-12T14:20:21;11.90;99.90
13892;DHT22;7016;48.172;8.058;2023-03-12T14:22:57;12.00;99.90
13892;DHT22;7016;48.172;8.058;2023-03-12T14:25:37;12.00;99.90
13892;DHT22;7016;48.172;8.058;2023-03-12T14:28:15;11.90;99.90
13892;DHT22;7016;48.172;8.058;2023-03-12T14:31:00;11.90;99.90
13892;DHT22;7016;48.172;8.058;2023-03-12T14:33:34;11.90;99.90
13892;DHT22;7016;48.172;8.058;2023-03-12T14:36:05;12.00;99.90
13892;DHT22;7016;48.172;8.058;2023-03-12T14:38:36;12.00;99.90
13892;DHT22;7016;48.172;8.058;2023-03-12T14:41:19;12.10;99.90
13892;DHT22;7016;48.172;8.058;2023-03-12T14:43:51;12.10;99.90
13892;DHT22;7016;48.172;8.058;2023-03-12T14:46:22;12.10;99.90
13892;DHT22;7016;48.172;8.058;2023-03-12T14:48:52;12.10;99.90
13892;DHT22;7016;48.172;8.058;2023-03-12T14:51:25;12.00;99.90
13892;DHT22;7016;48.172;8.058;2023-03-12T14:53:51;12.10;99.90
13892;DHT22;7016;48.172;8.058;2023-03-12T14:56:26;12.00;99.90
13892;DHT22;7016;48.172;8.058;2023-03-12T14:58:54;12.00;99.90
13892;DHT22;7016;48.172;8.058;2023-03-12T15:01:29;12.00;99.90
13892;DHT22;7016;48.172;8.058;2023-03-12T15:04:00;12.00;99.90
13892;DHT22;7016;48.172;8.058;2023-03-12T15:06:30;12.00;99.90
13892;DHT22;7016;48.172;8.058;2023-03-12T15:08:56;12.10;99.90
13892;DHT22;7016;48.172;8.058;2023-03-12T15:11:24;12.10;99.90
13892;DHT22;7016;48.172;8.058;2023-03-12T15:13:52;12.10;99.90
13892;DHT22;7016;48.172;8.058;2023-03-12T15:16:20;12.10;99.90
13892;DHT22;7016;48.172;8.058;2023-03-12T15:18:46;12.10;99.90
13892;DHT22;7016;48.172;8.058;2023-03-12T15:21:15;12.10;99.90
13892;DHT22;7016;48.172;8.058;2023-03-12T15:23:43;12.10;99.90
13892;DHT22;7016;48.172;8.058;2023-03-12T15:29:02;12.10;99.90
13892;DHT22;7016;48.172;8.058;2023-03-12T15:31:46;12.20;99.90
13892;DHT22;7016;48.172;8.058;2023-03-12T15:34:13;12.20;99.90
13892;DHT22;7016;48.172;8.058;2023-03-12T15:36:50;12.20;99.90
13892;DHT22;7016;48.172;8.058;2023-03-12T15:39:25;12.20;99.90
13892;DHT22;7016;48.172;8.058;2023-03-12T15:41:52;12.20;99.90
13892;DHT22;7016;48.172;8.058;2023-03-12T15:44:21;12.20;99.90
13892;DHT22;7016;48.172;8.058;2023-03-12T15:46:56;12.20;99.90
13892;DHT22;7016;48.172;8.058;2023-03-12T15:49:31;12.20;99.90
13892;DHT22;7016;48.172;8.058;2023-03-12T15:57:30;12.30;99.90
13892;DHT22;7016;48.172;8.058;2023-03-12T16:00:27;12.30;99.90
13892;DHT22;7016;48.172;8.058;2023-03-12T16:02:58;12.30;99.90
13892;DHT22;7016;48.172;8.058;2023-03-12T16:05:36;12.30;99.90
13892;DHT22;7016;48.172;8.058;2023-03-12T16:08:51;12.20;99.90
13892;DHT22;7016;48.172;8.058;2023-03-12T16:10:58;12.30;99.90
13892;DHT22;7016;48.172;8.058;2023-03-12T16:13:27;12.30;99.90
13892;DHT22;7016;48.172;8.058;2023-03-12T16:15:56;12.40;99.90
13892;DHT22;7016;48.172;8.058;2023-03-12T16:18:22;12.30;99.90
13892;DHT22;7016;48.172;8.058;2023-03-12T16:20:50;12.30;99.90
13892;DHT22;7016;48.172;8.058;2023-03-12T16:23:16;12.30;99.90
13892;DHT22;7016;48.172;8.058;2023-03-12T16:25:45;12.40;99.90
13892;DHT22;7016;48.172;8.058;2023-03-12T16:28:14;12.40;99.90
13892;DHT22;7016;48.172;8.058;2023-03-12T16:30:40;12.30;99.90
13892;DHT22;7016;48.172;8.058;2023-03-12T16:33:06;12.20;99.90
13892;DHT22;7016;48.172;8.058;2023-03-12T16:35:32;12.20;99.90
13892;DHT22;7016;48.172;8.058;2023-03-12T16:38:01;12.20;99.90
13892;DHT22;7016;48.172;8.058;2023-03-12T16:40:30;12.20;99.90
13892;DHT22;7016;48.172;8.058;2023-03-12T16:42:57;12.30;99.90
13892;DHT22;7016;48.172;8.058;2023-03-12T16:45:27;12.30;99.90
13892;DHT22;7016;48.172;8.058;2023-03-12T16:47:58;12.30;99.90
13892;DHT22;7016;48.172;8.058;2023-03-12T16:50:24;12.30;99.90
13892;DHT22;7016;48.172;8.058;2023-03-12T16:52:50;12.30;99.90
13892;DHT22;7016;48.172;8.058;2023-03-12T16:55:20;12.20;99.90
13892;DHT22;7016;48.172;8.058;2023-03-12T16:57:50;12.20;99.90
13892;DHT22;7016;48.172;8.058;2023-03-12T17:00:28;12.20;99.90
13892;DHT22;7016;48.172;8.058;2023-03-12T17:02:54;12.20;99.90
13892;DHT22;7016;48.172;8.058;2023-03-12T17:05:27;12.30;99.90
13892;DHT22;7016;48.172;8.058;2023-03-12T17:07:53;12.30;99.90
13892;DHT22;7016;48.172;8.058;2023-03-12T17:10:19;12.20;99.90
13892;DHT22;7016;48.172;8.058;2023-03-12T17:12:45;12.10;99.90
13892;DHT22;7016;48.172;8.058;2023-03-12T17:15:24;12.10;99.90
13892;DHT22;7016;48.172;8.058;2023-03-12T17:17:50;12.10;99.90
13892;DHT22;7016;48.172;8.058;2023-03-12T17:20:18;12.10;99.90
13892;DHT22;7016;48.172;8.058;2023-03-12T17:22:45;12.10;99.90
13892;DHT22;7016;48.172;8.058;2023-03-12T17:25:22;12.10;99.90
13892;DHT22;7016;48.172;8.058;2023-03-12T17:27:49;12.10;99.90
13892;DHT22;7016;48.172;8.058;2023-03-12T17:30:15;12.10;99.90
13892;DHT22;7016;48.172;8.058;2023-03-12T17:32:40;12.00;99.90
13892;DHT22;7016;48.172;8.058;2023-03-12T17:35:06;12.10;99.90
13892;DHT22;7016;48.172;8.058;2023-03-12T17:37:33;12.10;99.90
13892;DHT22;7016;48.172;8.058;2023-03-12T17:39:59;12.00;99.90
13892;DHT22;7016;48.172;8.058;2023-03-12T17:42:33;12.00;99.90
13892;DHT22;7016;48.172;8.058;2023-03-12T17:45:00;12.00;99.90
13892;DHT22;7016;48.172;8.058;2023-03-12T17:47:26;12.00;99.90
13892;DHT22;7016;48.172;8.058;2023-03-12T17:49:52;11.90;99.90
13892;DHT22;7016;48.172;8.058;2023-03-12T17:52:18;11.90;99.90
13892;DHT22;7016;48.172;8.058;2023-03-12T17:54:43;11.90;99.90
13892;DHT22;7016;48.172;8.058;2023-03-12T17:57:09;11.80;99.90
13892;DHT22;7016;48.172;8.058;2023-03-12T17:59:35;11.80;99.90
13892;DHT22;7016;48.172;8.058;2023-03-12T18:02:01;11.80;99.90
13892;DHT22;7016;48.172;8.058;2023-03-12T18:04:27;11.80;99.90
13892;DHT22;7016;48.172;8.058;2023-03-12T18:06:53;11.70;99.90
13892;DHT22;7016;48.172;8.058;2023-03-12T18:09:19;11.70;99.90
13892;DHT22;7016;48.172;8.058;2023-03-12T18:11:45;11.80;99.90
13892;DHT22;7016;48.172;8.058;2023-03-12T18:14:10;11.80;99.90